Hope, AK (99605)

7:58 PM AKDT on August 03, 2015 (GMT -0800)
APRSWXNET | | Change Station
CLOSE
Current Station
Personal Weather Station
Location: Anchorage, AK
Elevation: 748 ft
Nearby Weather Stations

Elev 748 ft 61.06 °N, 149.78 °W | Updated 22 minutes ago

Scattered Clouds
Scattered Clouds
70 °F
Feels Like 70 °F
N
3
Wind Variable Wind from WNW
Gusts 5.0 mph

Today
High -- | Low -- °F
--% Chance of Precip.
Yesterday
High -- | Low -- °F
Precip. -- in
5:37 AM 10:29 PM
Waning Gibbous, 81% visible
Pressure 30.00 in
Visibility 10.0 miles
Clouds Few 5500 ft
Scattered Clouds 20000 ft
Dew Point 56 °F
Humidity 61%
Rainfall in
Snow Depth Not available.
UV 1 out of 12
Pollen Not available.
Air Quality Not available.
Flu Activity Not available.
METAR PANC 040353Z 30004KT 10SM FEW055 SCT200 23/12 A3000 RMK AO2 SLP157 T02330117

More Conditions Fewer Conditions

Pressure 30.00 in
Visibility 10.0 miles
Clouds Few 5500 ft
Scattered Clouds 20000 ft
Dew Point 56 °F
Humidity 61%
Rainfall in
Snow Depth Not available.
UV 1 out of 12
Pollen Not available.
Air Quality Not available.
Flu Activity Not available.
METAR PANC 040353Z 30004KT 10SM FEW055 SCT200 23/12 A3000 RMK AO2 SLP157 T02330117

More Conditions Fewer Conditions

10-Day Weather Forecast

×

Almanac

Astronomy

Aug. 03, 2015 Rise Set
Actual Time
Civil Twilight
Nautical Twilight
Astronomical Twilight
Moon
Length of Visible Light
Length of Day
Tomorrow will be .
, % of the Moon is Illuminated

Today's Extremes

State Highs State Lows

Community

WunderPhotos

Upload Photos

1,843,847 photos uploaded!

WunderBlogs® & News

Nearby

Air Quality

  Air Quality AQ Index Pollutant
Not available.

Snow Depth

Station Depth Elevation

Earthquake Activity

City Distance Mag. Time & Date
Minimum magnitude displayed is 2.5.

Coastal Water Temperatures

Place Temperature

Stations

Nearby Weather Stations

Station Location Temp. Windchill Dew Point Humidity Wind Precip. Elev Updated Type